Terminal Aerodrome Forecast
Issued by NWS

Home | Current Version | Previous Version | Text Only | Print | Product List | Glossary On
Versions: 1 2 3 4 5 6 7 8 9 10 11 12 13
000
FTUS41 KILN 242331
TAFLUK
TAF
KLUK 242331Z 2500/2524 20005KT P6SM SCT050 BKN250
     FM251500 18010G20KT P6SM SCT050 BKN150
     FM252300 15007KT P6SM SCT050 BKN150=

USA.gov is the U.S. government's official web portal to all federal, state and local government web resources and services.